createdAt,value
2022-12-13T00:01:48.816Z,-1.80
2022-12-13T00:04:18.239Z,-1.80
2022-12-13T00:06:48.942Z,-1.80
2022-12-13T00:09:19.552Z,-1.90
2022-12-13T00:11:49.623Z,-1.90
2022-12-13T00:14:18.922Z,-1.90
2022-12-13T00:16:49.869Z,-1.90
2022-12-13T00:19:21.300Z,-1.90
2022-12-13T00:21:51.737Z,-2.00
2022-12-13T00:24:20.997Z,-2.00
2022-12-13T00:26:50.710Z,-2.00
2022-12-13T00:29:20.227Z,-2.00
2022-12-13T00:31:59.319Z,-2.00
2022-12-13T00:34:31.068Z,-2.00
2022-12-13T00:37:01.508Z,-2.00
2022-12-13T00:39:31.028Z,-2.00
2022-12-13T00:42:00.357Z,-2.00
2022-12-13T00:44:29.525Z,-2.00
2022-12-13T00:46:58.924Z,-2.00
2022-12-13T00:49:28.430Z,-2.00
2022-12-13T00:51:58.038Z,-2.00
2022-12-13T00:54:28.635Z,-2.00
2022-12-13T00:56:57.847Z,-2.00
2022-12-13T00:59:27.506Z,-2.00
2022-12-13T01:01:56.536Z,-2.10
2022-12-13T01:04:25.996Z,-2.10
2022-12-13T01:06:55.232Z,-2.10
2022-12-13T01:09:27.407Z,-2.10
2022-12-13T01:12:00.229Z,-2.10
2022-12-13T01:14:30.172Z,-2.10
2022-12-13T01:16:59.939Z,-2.10
2022-12-13T01:19:29.974Z,-2.10
2022-12-13T01:22:00.239Z,-2.10
2022-12-13T01:24:29.886Z,-2.20
2022-12-13T01:27:00.873Z,-2.20
2022-12-13T01:29:30.360Z,-2.20
2022-12-13T01:31:59.369Z,-2.20
2022-12-13T01:34:28.560Z,-2.30
2022-12-13T01:36:58.807Z,-2.30
2022-12-13T01:39:29.428Z,-2.30
2022-12-13T01:42:02.808Z,-2.30
2022-12-13T01:45:08.365Z,-2.30
2022-12-13T01:47:42.079Z,-2.40
2022-12-13T01:50:14.776Z,-2.40
2022-12-13T01:52:45.202Z,-2.40
2022-12-13T01:55:15.431Z,-2.40
2022-12-13T01:57:50.056Z,-2.40
2022-12-13T02:00:19.610Z,-2.40
2022-12-13T02:02:49.955Z,-2.50
2022-12-13T02:05:25.468Z,-2.50
2022-12-13T02:07:56.085Z,-2.40
2022-12-13T02:10:26.296Z,-2.40
2022-12-13T02:12:57.083Z,-2.50
2022-12-13T02:15:31.463Z,-2.50
2022-12-13T02:18:17.231Z,-2.50
2022-12-13T02:21:14.742Z,-2.50
2022-12-13T02:24:20.567Z,-2.50
2022-12-13T02:27:00.580Z,-2.60
2022-12-13T02:30:18.099Z,-2.60
2022-12-13T02:33:10.592Z,-2.60
2022-12-13T02:35:46.208Z,-2.60
2022-12-13T02:38:29.567Z,-2.60
2022-12-13T02:41:07.202Z,-2.70
2022-12-13T02:43:45.279Z,-2.70
2022-12-13T02:46:18.028Z,-2.70
2022-12-13T02:48:52.128Z,-2.80
2022-12-13T02:51:23.148Z,-2.70
2022-12-13T02:53:52.207Z,-2.80
2022-12-13T02:56:21.610Z,-2.80
2022-12-13T02:58:53.322Z,-2.80
2022-12-13T03:01:43.702Z,-2.80
2022-12-13T03:04:26.298Z,-2.80
2022-12-13T03:07:01.923Z,-2.80
2022-12-13T03:09:48.943Z,-2.80
2022-12-13T03:12:48.918Z,-2.80
2022-12-13T03:15:22.969Z,-2.80
2022-12-13T03:17:57.541Z,-2.80
2022-12-13T03:20:30.457Z,-2.80
2022-12-13T03:23:00.420Z,-2.90
2022-12-13T03:25:32.971Z,-2.90
2022-12-13T03:28:02.972Z,-2.90
2022-12-13T03:30:33.972Z,-2.90
2022-12-13T03:33:03.540Z,-3.00
2022-12-13T03:35:45.027Z,-3.00
2022-12-13T03:38:21.881Z,-3.10
2022-12-13T03:40:55.163Z,-3.10
2022-12-13T03:43:25.924Z,-3.10
2022-12-13T03:45:55.564Z,-3.10
2022-12-13T03:48:25.008Z,-3.20
2022-12-13T03:50:56.440Z,-3.10
2022-12-13T03:53:33.481Z,-3.20
2022-12-13T03:56:06.289Z,-3.20
2022-12-13T03:58:38.138Z,-3.20
2022-12-13T04:01:08.601Z,-3.20
2022-12-13T04:03:39.563Z,-3.30
2022-12-13T04:06:11.119Z,-3.30
2022-12-13T04:08:41.085Z,-3.40
2022-12-13T04:11:28.314Z,-3.40
2022-12-13T04:13:59.995Z,-3.40
2022-12-13T04:16:29.220Z,-3.40
2022-12-13T04:18:58.381Z,-3.40
2022-12-13T04:21:29.054Z,-3.40
2022-12-13T04:24:00.761Z,-3.40
2022-12-13T04:26:30.528Z,-3.40
2022-12-13T04:29:00.086Z,-3.40
2022-12-13T04:31:29.947Z,-3.40
2022-12-13T04:33:59.933Z,-3.40
2022-12-13T04:36:31.622Z,-3.40
2022-12-13T04:39:02.807Z,-3.40
2022-12-13T04:41:37.808Z,-3.40
2022-12-13T04:44:27.944Z,-3.40
2022-12-13T04:47:00.942Z,-3.40
2022-12-13T04:49:30.819Z,-3.40
2022-12-13T04:52:02.270Z,-3.40
2022-12-13T04:54:36.685Z,-3.40
2022-12-13T04:57:08.590Z,-3.50
2022-12-13T04:59:38.709Z,-3.50
2022-12-13T05:02:09.657Z,-3.50
2022-12-13T05:04:39.013Z,-3.50
2022-12-13T05:07:10.014Z,-3.50
2022-12-13T05:09:39.329Z,-3.50
2022-12-13T05:12:23.176Z,-3.50
2022-12-13T05:14:52.860Z,-3.50
2022-12-13T05:17:22.576Z,-3.60
2022-12-13T05:19:51.941Z,-3.60
2022-12-13T05:22:22.437Z,-3.60
2022-12-13T05:24:51.526Z,-3.70
2022-12-13T05:27:24.640Z,-3.70
2022-12-13T05:30:05.330Z,-3.80
2022-12-13T05:32:43.969Z,-3.80
2022-12-13T05:35:23.176Z,-3.80
2022-12-13T05:37:55.613Z,-3.90
2022-12-13T05:40:25.468Z,-3.90
2022-12-13T05:43:01.248Z,-3.90
2022-12-13T05:45:31.862Z,-4.00
2022-12-13T05:48:01.546Z,-4.00
2022-12-13T05:50:30.855Z,-4.10
2022-12-13T05:53:01.394Z,-4.10
2022-12-13T05:55:31.357Z,-4.00
2022-12-13T05:58:02.436Z,-4.00
2022-12-13T06:00:32.238Z,-4.00
2022-12-13T06:03:02.578Z,-4.00
2022-12-13T06:05:32.856Z,-4.00
2022-12-13T06:08:03.566Z,-4.00
2022-12-13T06:11:11.166Z,-3.90
2022-12-13T06:13:44.255Z,-3.90
2022-12-13T06:16:22.249Z,-4.00
2022-12-13T06:19:02.793Z,-4.00
2022-12-13T06:21:41.663Z,-4.00
2022-12-13T06:24:16.301Z,-4.00
2022-12-13T06:26:46.345Z,-4.00
2022-12-13T06:29:22.703Z,-4.10
2022-12-13T06:32:02.370Z,-4.10
2022-12-13T06:34:34.635Z,-4.10
2022-12-13T06:37:07.936Z,-4.10
2022-12-13T06:39:38.430Z,-4.10
2022-12-13T06:42:09.313Z,-4.10
2022-12-13T06:44:38.748Z,-4.10
2022-12-13T06:47:11.352Z,-4.00
2022-12-13T06:49:43.916Z,-4.10
2022-12-13T06:52:15.120Z,-4.10
2022-12-13T06:54:45.819Z,-4.10
2022-12-13T06:57:14.983Z,-4.10
2022-12-13T06:59:44.989Z,-4.10
2022-12-13T07:02:24.442Z,-4.10
2022-12-13T07:04:56.351Z,-4.10
2022-12-13T07:07:26.464Z,-4.00
2022-12-13T07:09:57.010Z,-4.00
2022-12-13T07:12:26.319Z,-4.00
2022-12-13T07:14:56.629Z,-4.00
2022-12-13T07:17:33.171Z,-4.00
2022-12-13T07:20:08.417Z,-4.00
2022-12-13T07:22:46.725Z,-4.10
2022-12-13T07:25:26.848Z,-4.00
2022-12-13T07:28:01.089Z,-4.00
2022-12-13T07:30:33.785Z,-4.00
2022-12-13T07:33:03.831Z,-4.00
2022-12-13T07:35:37.184Z,-4.00
2022-12-13T07:38:08.263Z,-4.00
2022-12-13T07:40:40.980Z,-4.00
2022-12-13T07:43:12.196Z,-4.00
2022-12-13T07:45:41.384Z,-4.00
2022-12-13T07:48:10.748Z,-4.00
2022-12-13T07:50:40.213Z,-4.00
2022-12-13T07:53:10.233Z,-4.10
2022-12-13T07:55:41.033Z,-4.00
2022-12-13T07:58:11.979Z,-4.00
2022-12-13T08:00:46.056Z,-4.00
2022-12-13T08:03:25.723Z,-4.00
2022-12-13T08:06:03.000Z,-4.00
2022-12-13T08:08:32.400Z,-4.00
2022-12-13T08:11:04.970Z,-3.90
2022-12-13T08:13:34.094Z,-4.00
2022-12-13T08:16:27.802Z,-3.90
2022-12-13T08:19:01.874Z,-3.90
2022-12-13T08:21:55.047Z,-3.90
2022-12-13T08:24:26.275Z,-3.90
2022-12-13T08:27:01.890Z,-3.90
2022-12-13T08:29:35.333Z,-3.90
2022-12-13T08:32:07.617Z,-3.90
2022-12-13T08:34:37.286Z,-3.80
2022-12-13T08:37:06.946Z,-3.80
2022-12-13T08:39:37.722Z,-3.70
2022-12-13T08:42:15.134Z,-3.70
2022-12-13T08:44:49.007Z,-3.60
2022-12-13T08:47:23.817Z,-3.60
2022-12-13T08:49:56.077Z,-3.50
2022-12-13T08:52:39.007Z,-3.50
2022-12-13T08:55:12.232Z,-3.40
2022-12-13T08:57:44.406Z,-3.40
2022-12-13T09:00:15.183Z,-3.30
2022-12-13T09:02:44.769Z,-3.30
2022-12-13T09:05:32.328Z,-3.20
2022-12-13T09:08:24.224Z,-3.20
2022-12-13T09:10:59.132Z,-3.00
2022-12-13T09:13:32.894Z,-2.90
2022-12-13T09:16:14.109Z,-2.70
2022-12-13T09:18:44.270Z,-2.30
2022-12-13T09:21:22.534Z,-1.90
2022-12-13T09:24:02.582Z,-1.40
2022-12-13T09:26:38.406Z,-0.90
2022-12-13T09:29:10.611Z,-0.40
2022-12-13T09:31:41.322Z,0.10
2022-12-13T09:34:11.365Z,0.60
2022-12-13T09:36:42.242Z,1.20
2022-12-13T09:39:13.243Z,1.80
2022-12-13T09:41:48.126Z,2.40
2022-12-13T09:44:32.235Z,3.00
2022-12-13T09:47:13.287Z,3.50
2022-12-13T09:49:52.107Z,4.00
2022-12-13T09:52:25.360Z,4.30
2022-12-13T09:54:57.597Z,4.50
2022-12-13T09:57:32.079Z,4.60
2022-12-13T10:00:08.033Z,4.60
2022-12-13T10:02:45.576Z,4.60
2022-12-13T10:05:33.796Z,4.50
2022-12-13T10:08:10.525Z,4.40
2022-12-13T10:10:39.899Z,4.30
2022-12-13T10:13:18.368Z,4.20
2022-12-13T10:15:53.325Z,4.30
2022-12-13T10:18:33.899Z,4.50
2022-12-13T10:21:09.337Z,4.90
2022-12-13T10:24:15.316Z,5.30
2022-12-13T10:26:37.940Z,5.70
2022-12-13T10:29:08.578Z,6.20
2022-12-13T10:31:45.605Z,6.50
2022-12-13T10:34:23.307Z,6.90
2022-12-13T10:36:52.861Z,7.20
2022-12-13T10:39:38.395Z,7.50
2022-12-13T10:42:14.266Z,7.70
2022-12-13T10:45:11.523Z,7.70
2022-12-13T10:47:44.432Z,7.60
2022-12-13T10:50:26.165Z,7.40
2022-12-13T10:52:58.866Z,7.30
2022-12-13T10:55:32.159Z,7.20
2022-12-13T10:58:07.161Z,7.20
2022-12-13T11:00:39.901Z,7.40
2022-12-13T11:03:14.930Z,7.90
2022-12-13T11:05:46.763Z,8.40
2022-12-13T11:08:22.044Z,9.10
2022-12-13T11:12:16.373Z,9.80
2022-12-13T11:14:53.618Z,10.80
2022-12-13T11:17:25.327Z,11.40
2022-12-13T11:19:57.819Z,12.00
2022-12-13T11:22:29.762Z,12.70
2022-12-13T11:25:03.993Z,13.30
2022-12-13T11:27:49.258Z,13.80
2022-12-13T11:30:37.466Z,14.20
2022-12-13T11:33:18.858Z,14.70
2022-12-13T11:36:01.911Z,15.00
2022-12-13T11:38:36.072Z,15.20
2022-12-13T11:41:13.471Z,15.50
2022-12-13T11:44:08.558Z,15.70
2022-12-13T11:46:42.982Z,16.00
2022-12-13T11:49:17.980Z,16.30
2022-12-13T11:51:54.799Z,16.70
2022-12-13T11:54:29.279Z,17.10
2022-12-13T11:57:01.106Z,17.30
2022-12-13T11:59:39.701Z,17.30
2022-12-13T12:02:19.484Z,17.30
2022-12-13T12:04:58.117Z,16.90
2022-12-13T12:07:36.906Z,16.40
2022-12-13T12:10:23.247Z,15.90
2022-12-13T12:12:59.587Z,15.30
2022-12-13T12:15:33.937Z,14.80
2022-12-13T12:18:16.037Z,14.20
2022-12-13T12:20:57.463Z,13.70
2022-12-13T12:23:46.230Z,13.20
2022-12-13T12:26:22.899Z,12.70
2022-12-13T12:29:12.441Z,12.30
2022-12-13T12:31:51.793Z,11.90
2022-12-13T12:34:30.789Z,11.40
2022-12-13T12:37:11.476Z,11.10
2022-12-13T12:40:08.824Z,10.80
2022-12-13T12:43:14.362Z,10.60
2022-12-13T12:45:56.708Z,10.30
2022-12-13T12:49:00.369Z,10.00
2022-12-13T12:51:40.845Z,9.80
2022-12-13T12:54:32.171Z,9.70
2022-12-13T12:57:09.353Z,9.70
2022-12-13T12:59:47.803Z,9.50
2022-12-13T13:02:24.166Z,9.30
2022-12-13T13:04:59.252Z,9.00
2022-12-13T13:07:39.773Z,8.60
2022-12-13T13:10:25.923Z,8.20
2022-12-13T13:13:11.980Z,7.80
2022-12-13T13:15:55.675Z,7.40
2022-12-13T13:18:46.034Z,7.00
2022-12-13T13:21:34.897Z,6.60
2022-12-13T13:24:14.477Z,6.30
2022-12-13T13:26:46.383Z,6.00
2022-12-13T13:29:43.200Z,5.70
2022-12-13T13:32:29.228Z,5.40
2022-12-13T13:35:53.488Z,5.20
2022-12-13T13:38:51.371Z,5.10
2022-12-13T13:41:54.727Z,4.80
2022-12-13T13:44:57.099Z,4.70
2022-12-13T13:47:45.365Z,4.50
2022-12-13T13:50:57.749Z,4.40
2022-12-13T13:54:09.042Z,4.30
2022-12-13T13:57:33.243Z,4.20
2022-12-13T14:00:20.021Z,4.10
2022-12-13T14:03:53.060Z,4.00
2022-12-13T14:07:04.537Z,3.90
2022-12-13T14:09:55.619Z,3.80
2022-12-13T14:12:56.789Z,3.80
2022-12-13T14:16:20.892Z,3.70
2022-12-13T14:19:27.109Z,3.70
2022-12-13T14:22:17.143Z,3.60
2022-12-13T14:24:56.735Z,3.50
2022-12-13T14:27:40.443Z,3.50
2022-12-13T14:30:27.271Z,3.40
2022-12-13T14:33:00.535Z,3.40
2022-12-13T14:35:31.581Z,3.30
2022-12-13T14:38:02.728Z,3.30
2022-12-13T14:40:34.671Z,3.30
2022-12-13T14:43:04.746Z,3.20
2022-12-13T14:45:36.850Z,3.20
2022-12-13T14:48:14.016Z,3.10
2022-12-13T14:50:46.186Z,3.10
2022-12-13T14:53:25.643Z,3.00
2022-12-13T14:56:07.810Z,2.90
2022-12-13T14:58:37.527Z,2.90
2022-12-13T15:01:07.997Z,2.80
2022-12-13T15:03:38.537Z,2.70
2022-12-13T15:06:08.211Z,2.70
2022-12-13T15:08:38.833Z,2.70
2022-12-13T15:11:10.716Z,2.60
2022-12-13T15:13:42.834Z,2.50
2022-12-13T15:16:22.160Z,2.50
2022-12-13T15:19:10.933Z,2.40
2022-12-13T15:21:40.595Z,2.40
2022-12-13T15:24:13.687Z,2.30
2022-12-13T15:26:58.928Z,2.30
2022-12-13T15:29:31.335Z,2.20
2022-12-13T15:32:01.064Z,2.20
2022-12-13T15:34:38.416Z,2.20
2022-12-13T15:37:29.235Z,2.20
2022-12-13T15:40:02.723Z,2.10
2022-12-13T15:42:35.014Z,2.10
2022-12-13T15:45:22.151Z,2.10
2022-12-13T15:47:52.678Z,2.00
2022-12-13T15:50:36.175Z,2.00
2022-12-13T15:53:07.945Z,2.00
2022-12-13T15:55:40.432Z,1.90
2022-12-13T15:58:25.590Z,1.90
2022-12-13T16:00:55.327Z,1.80
2022-12-13T16:03:28.801Z,1.80
2022-12-13T16:06:02.459Z,1.80
2022-12-13T16:08:40.869Z,1.70
2022-12-13T16:11:10.379Z,1.60
2022-12-13T16:13:40.004Z,1.60
2022-12-13T16:16:28.210Z,1.50
2022-12-13T16:18:58.886Z,1.50
2022-12-13T16:21:30.032Z,1.40
2022-12-13T16:23:59.153Z,1.40
2022-12-13T16:26:31.099Z,1.30
2022-12-13T16:29:00.248Z,1.30
2022-12-13T16:31:35.611Z,1.20
2022-12-13T16:34:05.518Z,1.20
2022-12-13T16:36:36.391Z,1.10
2022-12-13T16:39:07.327Z,1.10
2022-12-13T16:41:37.362Z,1.10
2022-12-13T16:44:10.667Z,1.10
2022-12-13T16:47:12.142Z,1.10
2022-12-13T16:49:31.387Z,1.00
2022-12-13T16:52:03.096Z,0.90
2022-12-13T16:54:32.078Z,0.90
2022-12-13T16:57:02.113Z,0.80
2022-12-13T16:59:31.411Z,0.80
2022-12-13T17:02:00.880Z,0.80
2022-12-13T17:04:30.046Z,0.70
2022-12-13T17:06:59.109Z,0.70
2022-12-13T17:09:29.841Z,0.70
2022-12-13T17:11:59.692Z,0.60
2022-12-13T17:14:29.980Z,0.60
2022-12-13T17:16:59.157Z,0.50
2022-12-13T17:19:28.306Z,0.50
2022-12-13T17:21:58.108Z,0.40
2022-12-13T17:24:27.244Z,0.40
2022-12-13T17:26:57.711Z,0.30
2022-12-13T17:29:27.006Z,0.30
2022-12-13T17:31:56.043Z,0.20
2022-12-13T17:34:25.154Z,0.20
2022-12-13T17:36:54.094Z,0.10
2022-12-13T17:39:26.539Z,0.10
2022-12-13T17:41:56.993Z,0.00
2022-12-13T17:44:26.661Z,0.00
2022-12-13T17:46:56.080Z,-0.10
2022-12-13T17:49:25.761Z,-0.10
2022-12-13T17:51:55.492Z,-0.10
2022-12-13T17:54:26.069Z,-0.10
2022-12-13T17:56:57.211Z,-0.20
2022-12-13T17:59:27.186Z,-0.20
2022-12-13T18:01:57.213Z,-0.30
2022-12-13T18:04:26.231Z,-0.30
2022-12-13T18:06:56.622Z,-0.40
2022-12-13T18:09:25.730Z,-0.40
2022-12-13T18:11:58.487Z,-0.40
2022-12-13T18:14:27.684Z,-0.40
2022-12-13T18:16:56.797Z,-0.50
2022-12-13T18:19:30.028Z,-0.50
2022-12-13T18:21:59.370Z,-0.50
2022-12-13T18:24:28.706Z,-0.50
2022-12-13T18:26:59.076Z,-0.50
2022-12-13T18:29:28.470Z,-0.60
2022-12-13T18:31:57.344Z,-0.60
2022-12-13T18:34:26.256Z,-0.60
2022-12-13T18:36:55.263Z,-0.60
2022-12-13T18:39:24.593Z,-0.60
2022-12-13T18:41:53.915Z,-0.60
2022-12-13T18:44:24.227Z,-0.70
2022-12-13T18:46:53.650Z,-0.70
2022-12-13T18:49:22.498Z,-0.70
2022-12-13T18:51:51.594Z,-0.70
2022-12-13T18:54:20.610Z,-0.70
2022-12-13T18:56:49.688Z,-0.80
2022-12-13T18:59:19.292Z,-0.80
2022-12-13T19:01:49.725Z,-0.90
2022-12-13T19:04:18.938Z,-0.90
2022-12-13T19:06:47.864Z,-0.90
2022-12-13T19:09:16.974Z,-1.00
2022-12-13T19:11:46.051Z,-1.00
2022-12-13T19:14:15.018Z,-1.00
2022-12-13T19:16:43.876Z,-1.10
2022-12-13T19:19:14.385Z,-1.10
2022-12-13T19:21:43.445Z,-1.10
2022-12-13T19:24:13.996Z,-1.10
2022-12-13T19:26:43.278Z,-1.10
2022-12-13T19:29:12.454Z,-1.20
2022-12-13T19:31:41.810Z,-1.20
2022-12-13T19:34:10.818Z,-1.20
2022-12-13T19:36:41.205Z,-1.20
2022-12-13T19:39:12.425Z,-1.20
2022-12-13T19:41:41.333Z,-1.30
2022-12-13T19:44:10.263Z,-1.30
2022-12-13T19:46:39.539Z,-1.30
2022-12-13T19:49:11.498Z,-1.40
2022-12-13T19:51:41.769Z,-1.40
2022-12-13T19:54:10.788Z,-1.40
2022-12-13T19:56:39.777Z,-1.40
2022-12-13T19:59:09.136Z,-1.50
2022-12-13T20:01:38.410Z,-1.50
2022-12-13T20:04:07.529Z,-1.50
2022-12-13T20:06:36.695Z,-1.50
2022-12-13T20:09:07.259Z,-1.50
2022-12-13T20:11:36.335Z,-1.50
2022-12-13T20:14:05.849Z,-1.50
2022-12-13T20:16:35.048Z,-1.60
2022-12-13T20:19:04.670Z,-1.60
2022-12-13T20:21:33.820Z,-1.60
2022-12-13T20:24:03.283Z,-1.60
2022-12-13T20:26:33.977Z,-1.60
2022-12-13T20:29:03.013Z,-1.60
2022-12-13T20:31:33.973Z,-1.60
2022-12-13T20:34:06.724Z,-1.60
2022-12-13T20:36:35.675Z,-1.60
2022-12-13T20:39:07.293Z,-1.60
2022-12-13T20:41:37.940Z,-1.60
2022-12-13T20:44:08.750Z,-1.60
2022-12-13T20:46:38.061Z,-1.60
2022-12-13T20:49:08.585Z,-1.70
2022-12-13T20:51:39.478Z,-1.70
2022-12-13T20:54:09.481Z,-1.70
2022-12-13T20:56:40.206Z,-1.70
2022-12-13T20:59:13.269Z,-1.80
2022-12-13T21:01:44.952Z,-1.80
2022-12-13T21:04:19.655Z,-1.80
2022-12-13T21:06:48.862Z,-1.80
2022-12-13T21:09:18.182Z,-1.80
2022-12-13T21:11:49.945Z,-1.80
2022-12-13T21:14:23.075Z,-1.80
2022-12-13T21:16:54.356Z,-1.80
2022-12-13T21:19:25.432Z,-1.80
2022-12-13T21:21:55.406Z,-1.80
2022-12-13T21:24:26.817Z,-1.80
2022-12-13T21:26:57.857Z,-1.80
2022-12-13T21:29:27.646Z,-1.80
2022-12-13T21:31:56.643Z,-1.80
2022-12-13T21:34:26.418Z,-1.80
2022-12-13T21:36:55.482Z,-1.80
2022-12-13T21:39:27.994Z,-1.80
2022-12-13T21:41:59.089Z,-1.80
2022-12-13T21:44:28.333Z,-1.80
2022-12-13T21:47:13.705Z,-1.90
2022-12-13T21:49:48.298Z,-1.90
2022-12-13T21:52:18.675Z,-1.90
2022-12-13T21:54:47.749Z,-1.90
2022-12-13T21:57:36.729Z,-1.90
2022-12-13T22:00:06.735Z,-1.90
2022-12-13T22:02:42.619Z,-2.00
2022-12-13T22:05:11.703Z,-2.00
2022-12-13T22:07:40.929Z,-2.00
2022-12-13T22:10:10.427Z,-2.00
2022-12-13T22:12:42.883Z,-2.00
2022-12-13T22:15:13.585Z,-2.00
2022-12-13T22:17:44.234Z,-2.00
2022-12-13T22:20:15.436Z,-2.00
2022-12-13T22:22:48.360Z,-2.00
2022-12-13T22:25:18.850Z,-2.00
2022-12-13T22:27:49.402Z,-1.90
2022-12-13T22:30:18.501Z,-1.90
2022-12-13T22:32:49.335Z,-2.00
2022-12-13T22:35:19.172Z,-1.90
2022-12-13T22:37:50.016Z,-1.90
2022-12-13T22:40:19.216Z,-2.00
2022-12-13T22:42:49.631Z,-2.00
2022-12-13T22:45:19.015Z,-2.00
2022-12-13T22:47:48.495Z,-2.00
2022-12-13T22:50:17.615Z,-2.00
2022-12-13T22:52:48.002Z,-1.90
2022-12-13T22:55:17.655Z,-1.90
2022-12-13T22:57:48.645Z,-1.90
2022-12-13T23:00:19.755Z,-1.90
2022-12-13T23:02:48.851Z,-1.90
2022-12-13T23:05:18.136Z,-1.90
2022-12-13T23:07:48.489Z,-1.90
2022-12-13T23:10:35.909Z,-1.90
2022-12-13T23:13:04.888Z,-1.90
2022-12-13T23:15:38.461Z,-1.80
2022-12-13T23:18:07.679Z,-1.80
2022-12-13T23:20:36.768Z,-1.80
2022-12-13T23:23:07.690Z,-1.80
2022-12-13T23:25:36.615Z,-1.70
2022-12-13T23:28:05.915Z,-1.70
2022-12-13T23:30:37.492Z,-1.70
2022-12-13T23:33:07.005Z,-1.70
2022-12-13T23:35:36.002Z,-1.60
2022-12-13T23:38:04.835Z,-1.70
2022-12-13T23:40:33.869Z,-1.70
2022-12-13T23:43:05.726Z,-1.60
2022-12-13T23:45:36.221Z,-1.60
2022-12-13T23:48:05.443Z,-1.60
2022-12-13T23:50:34.489Z,-1.60
2022-12-13T23:53:03.613Z,-1.60
2022-12-13T23:55:32.696Z,-1.60
2022-12-13T23:58:01.464Z,-1.60
